Startpagina
METAR-TAF:

METAR-TAF

Vliegvelden :

Aeropuerto Internacional Capitán de Corbeta Carlos A. Curbelo

Punta del Este, Uruguay

breedte: 34-52S, lengte: 055-06W, hoogte: 30 m

Actueel weer

Dit bericht is 20 minuten geleden gemaakt, om 20:00 UTC
Wind 6 kt uit het zuidoosten
Temperatuur 15°C
Vochtigheid 48%
Druk 1012 hPa
Zicht 10 km of meer
geen wolken onder 1500 m en geen cumulonimbus

METAR: SULS 182000Z 13006KT CAVOK 15/04 Q1012

Tijdstip: 17:20 (20:20 UTC)

Verwachting

Dit bericht is 2 uur en het 50 minuten geleden gemaakt, om 17:30 UTC
Verwachting geldig van 18 om 18 UTC tot 19 om 18 UTC
Wind 8 kt uit het westnoordwesten
Zicht 10 km of meer
geen wolken onder 1500 m en geen cumulonimbus

TAF: SULS 181730Z 1818/1918 30008KT CAVOK TX16/1918Z TN07/1910Z

Waarnemingen en weersverwachtingen van meer dan 4000 vliegvelden (METAR en TAF).

De beschikbare stations zijn de gele en rode punten op de kaart.

Ga met uw muis naar het station om de naam te zien.

Klik dan om waarnemingen en weersverwachtingen te zien.

kaart wijzigen: klik op de groene knoppen met een zwart kruis om in te zoomen, op de groene knop met een streepje om uit te zoomen of op de groene pijlen voor aangrenzende kaarten.


METAR-TAF: